Time;durP1;ratioP1;P1;durP2;ratioP2;P2;SDS_P1;SDS_P2;PMS_P1;PMS_P2;Temp;Humidity;BMP_temperature;BMP_pressure;BME280_temperature;BME280_humidity;BME280_pressure;Samples;Min_cycle;Max_cycle;Signal;HPM_P1;HPM_P2
2022/07/08 00:01:02;;;;;;;7.05;1.70;;;15.70;94.90;;;;;;5097869;27;20059;-43
2022/07/08 00:03:29;;;;;;;11.48;1.92;;;15.80;95.00;;;;;;5099629;28;20066;-42
2022/07/08 00:05:55;;;;;;;8.98;2.00;;;15.70;95.20;;;;;;5093307;28;20148;-43
2022/07/08 00:08:22;;;;;;;10.30;2.00;;;15.70;95.20;;;;;;5103266;28;20134;-43
2022/07/08 00:10:49;;;;;;;9.85;1.90;;;15.70;95.60;;;;;;5101912;28;20139;-43
2022/07/08 00:13:17;;;;;;;10.60;1.70;;;15.70;95.20;;;;;;5097823;28;20044;-43
2022/07/08 00:15:43;;;;;;;9.30;1.90;;;15.70;95.20;;;;;;5091209;28;20048;-44
2022/07/08 00:18:10;;;;;;;17.10;2.97;;;15.60;95.30;;;;;;5125046;28;20395;-43
2022/07/08 00:20:37;;;;;;;9.02;1.70;;;15.60;95.50;;;;;;5092362;28;20048;-44
2022/07/08 00:23:03;;;;;;;11.55;2.05;;;15.60;95.60;;;;;;5110908;28;20491;-44
2022/07/08 00:25:30;;;;;;;5.97;1.98;;;15.60;95.60;;;;;;5099424;28;20048;-43
2022/07/08 00:27:57;;;;;;;11.43;1.77;;;15.50;95.70;;;;;;5092340;28;20514;-43
2022/07/08 00:30:25;;;;;;;21.67;2.13;;;15.50;95.70;;;;;;5100422;28;20132;-43
2022/07/08 00:32:52;;;;;;;10.90;1.90;;;15.50;95.80;;;;;;5092534;28;20127;-43
2022/07/08 00:35:18;;;;;;;11.38;2.40;;;15.50;96.00;;;;;;5096040;28;20471;-43
2022/07/08 00:37:45;;;;;;;11.25;2.10;;;15.50;96.10;;;;;;5125195;27;20055;-43
2022/07/08 00:40:13;;;;;;;9.13;1.85;;;15.50;96.00;;;;;;5099370;28;20056;-42
2022/07/08 00:42:40;;;;;;;7.65;1.85;;;15.40;96.20;;;;;;5104076;28;20134;-43
2022/07/08 00:45:07;;;;;;;15.30;1.83;;;15.40;96.20;;;;;;5103167;27;20043;-42
2022/07/08 00:47:36;;;;;;;10.27;1.90;;;15.40;96.40;;;;;;5099209;27;20046;-42
2022/07/08 00:50:02;;;;;;;11.02;2.20;;;15.40;96.40;;;;;;5096366;28;20058;-43
2022/07/08 00:52:29;;;;;;;6.97;1.90;;;15.30;96.30;;;;;;5098145;28;20541;-42
2022/07/08 00:54:56;;;;;;;7.32;1.80;;;15.30;96.30;;;;;;5099846;27;20048;-43
2022/07/08 00:57:23;;;;;;;8.57;1.85;;;15.40;96.40;;;;;;5112904;27;20062;-43
2022/07/08 00:59:49;;;;;;;12.23;2.40;;;15.30;96.40;;;;;;5100438;28;20084;-43
2022/07/08 01:02:16;;;;;;;6.80;1.58;;;15.30;96.50;;;;;;5106071;27;20130;-42
2022/07/08 01:04:44;;;;;;;11.75;1.98;;;15.30;96.60;;;;;;5097573;27;20087;-43
2022/07/08 01:07:11;;;;;;;14.23;2.05;;;15.30;96.90;;;;;;5112193;28;20040;-43
2022/07/08 01:09:37;;;;;;;12.43;2.08;;;15.20;97.00;;;;;;5106416;27;20138;-42
2022/07/08 01:12:05;;;;;;;10.18;2.17;;;15.20;97.10;;;;;;5108164;27;20054;-42
2022/07/08 01:14:32;;;;;;;14.90;2.90;;;15.30;97.30;;;;;;5098364;27;20460;-43
2022/07/08 01:16:59;;;;;;;11.38;2.05;;;15.30;97.40;;;;;;5097995;27;20142;-43
2022/07/08 01:19:25;;;;;;;11.50;2.13;;;15.20;97.60;;;;;;5095634;28;20088;-43
2022/07/08 01:21:55;;;;;;;9.07;1.85;;;15.20;97.50;;;;;;5097595;27;20415;-43
2022/07/08 01:24:22;;;;;;;11.70;1.95;;;15.20;97.80;;;;;;5116155;28;20615;-43
2022/07/08 01:26:49;;;;;;;6.63;2.03;;;15.30;97.70;;;;;;5102234;27;20182;-42
2022/07/08 01:29:16;;;;;;;13.82;1.92;;;15.20;97.70;;;;;;5143770;27;20048;-42
2022/07/08 01:31:42;;;;;;;10.88;2.05;;;15.20;97.80;;;;;;5102273;28;20082;-43
2022/07/08 01:34:09;;;;;;;11.45;2.00;;;15.20;97.90;;;;;;5110962;27;20051;-42
2022/07/08 01:36:36;;;;;;;7.75;1.90;;;15.20;97.80;;;;;;5101961;28;21659;-42
2022/07/08 01:39:04;;;;;;;7.88;2.20;;;15.20;97.80;;;;;;5095206;28;20044;-42
2022/07/08 01:41:31;;;;;;;8.05;2.30;;;15.20;98.00;;;;;;5103958;27;20048;-42
2022/07/08 01:43:58;;;;;;;9.10;2.17;;;15.10;98.10;;;;;;5095678;27;20130;-42
2022/07/08 01:46:30;;;;;;;10.43;2.25;;;15.10;98.40;;;;;;5108434;28;20138;-42
2022/07/08 01:48:57;;;;;;;6.63;1.50;;;15.10;98.30;;;;;;5094383;28;20048;-43
2022/07/08 01:51:23;;;;;;;10.55;1.95;;;15.00;98.20;;;;;;5095152;27;20044;-43
2022/07/08 01:53:50;;;;;;;10.75;1.70;;;15.00;98.10;;;;;;5100158;28;20432;-43
2022/07/08 01:56:18;;;;;;;12.80;2.40;;;15.00;97.90;;;;;;5100695;28;20140;-43
2022/07/08 01:58:45;;;;;;;11.38;1.90;;;14.90;98.20;;;;;;5103404;27;20569;-43
2022/07/08 02:01:12;;;;;;;9.13;2.25;;;14.90;98.30;;;;;;5098577;27;20048;-44
2022/07/08 02:03:39;;;;;;;8.30;2.00;;;14.90;98.40;;;;;;5103824;28;20395;-44
2022/07/08 02:06:06;;;;;;;11.75;2.15;;;14.90;98.40;;;;;;5101280;27;20055;-43
2022/07/08 02:08:32;;;;;;;6.68;1.60;;;14.80;98.40;;;;;;5108514;27;20484;-43
2022/07/08 02:13:45;;;;;;;9.88;2.05;;;14.70;98.70;;;;;;5104113;27;20051;-43
2022/07/08 02:16:11;;;;;;;8.45;1.75;;;14.70;98.90;;;;;;5100958;28;20121;-42
2022/07/08 02:18:38;;;;;;;8.43;1.88;;;14.60;98.80;;;;;;5108823;27;20408;-43
2022/07/08 02:21:06;;;;;;;9.20;1.77;;;14.60;98.90;;;;;;5107524;28;20052;-43
2022/07/08 02:23:33;;;;;;;8.25;2.00;;;14.60;98.90;;;;;;5112230;27;20059;-43
2022/07/08 02:25:59;;;;;;;7.43;1.52;;;14.60;99.00;;;;;;5105198;28;20540;-43
2022/07/08 02:28:26;;;;;;;7.60;1.80;;;14.50;98.80;;;;;;5107011;27;20134;-42
2022/07/08 02:30:54;;;;;;;12.52;2.70;;;14.50;98.70;;;;;;5093456;27;20131;-43
2022/07/08 02:33:21;;;;;;;5.43;1.55;;;14.50;99.10;;;;;;5100913;28;20058;-43
2022/07/08 02:35:47;;;;;;;9.25;1.88;;;14.40;99.00;;;;;;5095034;27;20059;-42
2022/07/08 02:38:14;;;;;;;9.27;2.05;;;14.40;99.20;;;;;;5097610;28;20044;-42
2022/07/08 02:40:41;;;;;;;9.48;2.20;;;14.30;99.30;;;;;;5106359;27;20047;-42
2022/07/08 02:43:10;;;;;;;9.20;1.80;;;14.30;99.40;;;;;;5108255;28;20043;-43
2022/07/08 02:45:37;;;;;;;10.93;2.13;;;14.20;99.40;;;;;;5092853;28;20044;-43
2022/07/08 02:48:05;;;;;;;8.32;1.98;;;14.20;99.60;;;;;;5126759;27;20059;-43
2022/07/08 02:50:32;;;;;;;7.07;2.00;;;14.20;99.50;;;;;;5102913;27;20057;-43
2022/07/08 02:52:59;;;;;;;10.02;1.80;;;14.20;99.40;;;;;;5093813;28;20434;-43
2022/07/08 02:55:25;;;;;;;12.35;1.95;;;14.10;99.70;;;;;;5112142;28;20053;-42
2022/07/08 02:57:52;;;;;;;10.90;2.00;;;14.10;99.70;;;;;;5098949;28;20488;-42
2022/07/08 03:00:19;;;;;;;13.45;1.83;;;14.10;99.80;;;;;;5095127;27;20048;-42
2022/07/08 03:02:46;;;;;;;6.72;1.77;;;14.00;99.70;;;;;;5093740;28;20138;-42
2022/07/08 03:05:14;;;;;;;9.10;1.80;;;14.00;99.80;;;;;;5092823;28;20139;-43
2022/07/08 03:07:40;;;;;;;6.50;1.70;;;14.00;99.90;;;;;;5096450;27;20040;-43
2022/07/08 03:10:08;;;;;;;17.33;2.58;;;14.00;99.90;;;;;;5109607;28;20046;-43
2022/07/08 03:12:34;;;;;;;8.95;1.52;;;13.90;99.90;;;;;;5096357;28;20127;-42
2022/07/08 03:15:01;;;;;;;6.20;1.67;;;13.90;99.90;;;;;;5097755;27;20052;-42
2022/07/08 03:17:28;;;;;;;6.18;1.75;;;13.80;99.90;;;;;;5102004;28;20063;-44
2022/07/08 03:19:55;;;;;;;7.07;1.70;;;13.80;99.90;;;;;;5094422;28;20048;-41
2022/07/08 03:22:23;;;;;;;9.30;2.13;;;13.80;99.90;;;;;;5094933;28;20468;-41
2022/07/08 03:24:49;;;;;;;11.70;2.20;;;13.80;99.90;;;;;;5093008;27;20055;-42
2022/07/08 03:27:16;;;;;;;8.63;1.88;;;13.70;99.90;;;;;;5095722;27;20055;-42
2022/07/08 03:29:43;;;;;;;11.43;2.30;;;13.70;99.90;;;;;;5094668;28;20060;-42
2022/07/08 03:32:09;;;;;;;9.60;2.15;;;13.70;99.90;;;;;;5098070;27;20051;-42
2022/07/08 03:34:36;;;;;;;12.30;2.30;;;13.70;99.90;;;;;;5105379;27;20058;-42
2022/07/08 03:37:03;;;;;;;11.48;1.90;;;13.70;99.90;;;;;;5100259;28;20158;-42
2022/07/08 03:39:31;;;;;;;11.98;2.20;;;13.70;99.90;;;;;;5090466;28;20491;-42
2022/07/08 03:41:57;;;;;;;6.75;1.67;;;13.60;99.90;;;;;;5101487;28;20134;-42
2022/07/08 03:44:24;;;;;;;9.77;1.80;;;13.60;99.90;;;;;;5112635;28;20130;-42
2022/07/08 03:46:50;;;;;;;9.40;1.88;;;13.70;99.90;;;;;;5092739;28;20122;-42
2022/07/08 03:49:17;;;;;;;8.25;1.85;;;13.60;99.80;;;;;;5106749;28;20053;-43
2022/07/08 03:51:44;;;;;;;7.88;1.88;;;13.60;99.80;;;;;;5103976;27;20055;-43
2022/07/08 03:54:10;;;;;;;10.52;1.80;;;13.60;99.60;;;;;;5092047;27;20146;-43
2022/07/08 03:56:38;;;;;;;6.30;2.00;;;13.60;99.80;;;;;;5108752;28;20123;-43
2022/07/08 03:59:05;;;;;;;8.70;1.92;;;13.60;99.80;;;;;;5127282;27;20059;-42
2022/07/08 04:01:32;;;;;;;6.55;1.80;;;13.60;99.80;;;;;;5095049;28;20131;-42
2022/07/08 04:03:58;;;;;;;7.80;1.55;;;13.50;99.80;;;;;;5109009;28;20066;-42
2022/07/08 04:06:25;;;;;;;8.45;2.22;;;13.50;99.70;;;;;;5103393;27;20052;-42
2022/07/08 04:08:52;;;;;;;9.70;2.22;;;13.60;99.90;;;;;;5094375;27;20418;-42
2022/07/08 04:11:19;;;;;;;10.27;2.22;;;13.50;99.90;;;;;;5096075;28;20054;-42
2022/07/08 04:13:47;;;;;;;6.13;1.75;;;13.50;99.90;;;;;;5102281;28;20082;-42
2022/07/08 04:16:13;;;;;;;10.95;1.92;;;13.50;99.90;;;;;;5094433;27;20122;-42
2022/07/08 04:18:40;;;;;;;5.13;1.38;;;13.50;99.90;;;;;;5096570;28;20056;-41
2022/07/08 04:21:08;;;;;;;7.63;1.90;;;13.40;99.90;;;;;;5109427;27;20119;-42
2022/07/08 04:23:34;;;;;;;9.95;1.95;;;13.50;99.90;;;;;;5096556;28;20051;-42
2022/07/08 04:26:01;;;;;;;10.85;2.10;;;13.50;99.90;;;;;;5107010;27;20055;-41
2022/07/08 04:28:28;;;;;;;11.80;1.73;;;13.50;99.90;;;;;;5111690;28;20079;-41
2022/07/08 04:30:57;;;;;;;12.32;2.20;;;13.50;99.90;;;;;;5111217;27;20122;-42
2022/07/08 04:33:23;;;;;;;10.30;2.13;;;13.60;99.90;;;;;;5096159;27;20055;-41
2022/07/08 04:35:50;;;;;;;9.77;1.90;;;13.50;99.90;;;;;;5112450;27;20054;-42
2022/07/08 04:38:17;;;;;;;15.55;3.28;;;13.60;99.90;;;;;;5101807;27;20498;-42
2022/07/08 04:40:44;;;;;;;13.90;2.58;;;13.60;99.90;;;;;;5102373;28;20050;-42
2022/07/08 04:43:12;;;;;;;7.32;1.48;;;13.60;99.90;;;;;;5099856;27;20052;-42
2022/07/08 04:45:39;;;;;;;7.40;2.20;;;13.60;99.90;;;;;;5096335;28;20420;-42
2022/07/08 04:48:07;;;;;;;9.50;2.20;;;13.70;99.90;;;;;;5111735;27;20453;-42
2022/07/08 04:50:34;;;;;;;10.77;1.77;;;13.70;99.90;;;;;;5107906;27;20048;-42
2022/07/08 04:53:00;;;;;;;9.05;2.03;;;13.70;99.90;;;;;;5095953;28;20395;-42
2022/07/08 04:55:30;;;;;;;18.88;2.75;;;13.70;99.90;;;;;;5102430;27;20119;-42
2022/07/08 04:57:58;;;;;;;5.85;2.15;;;13.70;99.90;;;;;;5105453;28;20442;-41
2022/07/08 05:00:25;;;;;;;10.75;2.13;;;13.70;99.90;;;;;;5097270;28;20091;-42
2022/07/08 05:02:51;;;;;;;10.65;2.28;;;13.70;99.90;;;;;;5116631;28;20090;-42
2022/07/08 05:05:19;;;;;;;13.05;2.90;;;13.70;99.90;;;;;;5116113;28;20555;-42
2022/07/08 05:07:47;;;;;;;11.50;2.40;;;13.80;99.90;;;;;;5109810;27;20056;-43
2022/07/08 05:10:14;;;;;;;10.07;2.95;;;13.80;99.90;;;;;;5111478;28;20051;-42
2022/07/08 05:12:41;;;;;;;12.75;2.20;;;13.80;99.90;;;;;;5116174;28;20543;-42
2022/07/08 05:15:09;;;;;;;12.15;2.45;;;13.90;99.90;;;;;;5099941;28;20050;-42
2022/07/08 05:17:35;;;;;;;9.38;2.70;;;13.90;99.90;;;;;;5097370;27;20070;-43
2022/07/08 05:20:02;;;;;;;16.80;2.85;;;14.00;99.90;;;;;;5108344;27;20427;-42
2022/07/08 05:22:30;;;;;;;10.20;2.78;;;14.10;99.90;;;;;;5113546;28;20491;-42
2022/07/08 05:24:57;;;;;;;13.93;2.53;;;14.10;99.90;;;;;;5106129;27;20090;-42
2022/07/08 05:27:24;;;;;;;12.13;2.55;;;14.20;99.90;;;;;;5107825;28;20052;-43
2022/07/08 05:29:50;;;;;;;12.13;2.88;;;14.30;99.90;;;;;;5108617;27;20138;-42
2022/07/08 05:32:17;;;;;;;16.30;3.50;;;14.40;99.90;;;;;;5098085;28;20048;-41
2022/07/08 05:34:44;;;;;;;18.85;2.88;;;14.40;99.90;;;;;;5103242;27;20571;-42
2022/07/08 05:37:11;;;;;;;10.60;2.50;;;14.50;99.90;;;;;;5105234;28;20054;-43
2022/07/08 05:39:39;;;;;;;13.05;2.83;;;14.60;99.90;;;;;;5133008;27;20070;-42
2022/07/08 05:42:07;;;;;;;17.02;3.67;;;14.70;99.90;;;;;;5100977;27;20511;-42
2022/07/08 05:44:34;;;;;;;14.95;2.75;;;14.70;99.90;;;;;;5095002;28;20140;-42
2022/07/08 05:47:00;;;;;;;16.00;3.38;;;14.80;99.90;;;;;;5129404;27;20147;-42
2022/07/08 05:49:27;;;;;;;14.82;3.20;;;14.90;99.90;;;;;;5097443;27;20411;-42
2022/07/08 05:51:54;;;;;;;15.50;2.50;;;15.00;99.90;;;;;;5100446;28;20062;-42
2022/07/08 05:54:21;;;;;;;11.93;2.15;;;15.10;99.90;;;;;;4992367;22;20137;-43
2022/07/08 05:56:49;;;;;;;15.90;2.83;;;15.20;99.90;;;;;;4998599;28;20061;-43
2022/07/08 05:59:16;;;;;;;14.23;2.20;;;15.30;99.90;;;;;;5008875;28;20130;-43
2022/07/08 06:01:42;;;;;;;11.07;2.28;;;15.50;99.90;;;;;;5008796;28;20513;-43
2022/07/08 06:04:09;;;;;;;13.00;2.72;;;15.60;99.90;;;;;;5012916;28;20048;-43
2022/07/08 06:06:36;;;;;;;10.52;2.58;;;15.80;99.90;;;;;;5009474;28;20405;-43
2022/07/08 06:09:03;;;;;;;12.82;2.80;;;15.90;99.90;;;;;;5005097;28;20050;-43
2022/07/08 06:11:29;;;;;;;12.40;2.80;;;16.00;99.90;;;;;;5000543;28;20049;-43
2022/07/08 06:13:57;;;;;;;15.00;3.08;;;16.20;99.90;;;;;;4992198;28;20064;-43
2022/07/08 06:16:24;;;;;;;14.40;2.63;;;16.30;99.90;;;;;;5004395;28;20073;-43
2022/07/08 06:18:51;;;;;;;16.20;2.83;;;16.30;99.90;;;;;;5007702;28;20569;-43
2022/07/08 06:21:18;;;;;;;15.23;2.42;;;16.40;99.90;;;;;;5009633;28;20054;-43
2022/07/08 06:23:44;;;;;;;11.25;2.25;;;16.50;99.90;;;;;;5012083;28;20096;-43
2022/07/08 06:26:11;;;;;;;9.93;2.40;;;16.60;99.90;;;;;;5011467;28;20057;-44
2022/07/08 06:28:38;;;;;;;11.55;2.53;;;16.60;99.90;;;;;;5004730;28;21173;-43
2022/07/08 06:31:06;;;;;;;15.57;2.70;;;16.70;99.90;;;;;;5008442;28;20051;-41
2022/07/08 06:33:33;;;;;;;12.65;2.50;;;16.80;99.90;;;;;;5003116;28;20050;-42
2022/07/08 06:36:00;;;;;;;12.32;2.35;;;16.90;99.90;;;;;;5005092;28;20136;-42
2022/07/08 06:38:26;;;;;;;11.13;2.45;;;17.00;99.90;;;;;;5006966;28;20042;-42
2022/07/08 06:40:53;;;;;;;14.88;3.08;;;17.00;99.90;;;;;;5010535;28;20056;-42
2022/07/08 06:43:20;;;;;;;13.43;2.30;;;17.10;99.90;;;;;;5011888;28;20486;-42
2022/07/08 06:45:47;;;;;;;16.30;3.20;;;17.20;99.90;;;;;;5011982;28;20058;-41
2022/07/08 06:48:15;;;;;;;16.60;2.55;;;17.20;99.90;;;;;;5008811;28;20054;-42
2022/07/08 06:50:42;;;;;;;11.07;2.83;;;17.30;99.90;;;;;;5009584;28;20060;-43
2022/07/08 06:53:09;;;;;;;15.98;2.45;;;17.40;99.90;;;;;;5010450;28;20164;-43
2022/07/08 06:55:35;;;;;;;11.63;2.20;;;17.50;99.90;;;;;;5012941;28;20133;-43
2022/07/08 06:58:02;;;;;;;16.77;2.97;;;17.50;99.90;;;;;;5011687;28;20482;-42
2022/07/08 07:00:30;;;;;;;13.93;2.80;;;17.60;99.90;;;;;;5011862;28;20049;-43
2022/07/08 07:02:57;;;;;;;13.63;2.42;;;17.70;99.90;;;;;;5012173;28;20049;-43
2022/07/08 07:05:25;;;;;;;13.05;2.50;;;17.80;99.90;;;;;;5012933;28;20152;-43
2022/07/08 07:07:52;;;;;;;13.02;2.75;;;17.80;99.90;;;;;;5011176;28;20141;-42
2022/07/08 07:10:18;;;;;;;11.70;2.42;;;17.90;99.90;;;;;;5009938;28;20140;-42
2022/07/08 07:12:45;;;;;;;15.18;2.45;;;17.90;99.90;;;;;;5006379;28;20473;-42
2022/07/08 07:15:12;;;;;;;18.98;2.60;;;17.90;99.90;;;;;;4996130;28;20050;-43
2022/07/08 07:17:40;;;;;;;14.40;2.33;;;18.00;99.90;;;;;;5010811;28;20413;-43
2022/07/08 07:20:08;;;;;;;16.38;2.40;;;18.10;99.90;;;;;;5009958;28;20123;-42
2022/07/08 07:22:37;;;;;;;13.65;2.53;;;18.20;99.90;;;;;;5011784;28;20058;-42
2022/07/08 07:25:03;;;;;;;11.75;2.22;;;18.30;99.90;;;;;;5011062;28;20141;-42
2022/07/08 07:27:30;;;;;;;11.98;2.15;;;18.40;99.90;;;;;;5010286;28;20050;-42
2022/07/08 07:29:57;;;;;;;12.68;2.33;;;18.50;99.90;;;;;;5011301;28;20141;-42
2022/07/08 07:32:24;;;;;;;19.13;2.33;;;18.50;99.90;;;;;;5009302;28;20056;-42
2022/07/08 07:34:50;;;;;;;11.57;2.15;;;18.50;99.90;;;;;;5009087;28;20133;-42
2022/07/08 07:37:17;;;;;;;13.63;2.20;;;18.60;99.90;;;;;;5010896;28;20129;-42
2022/07/08 07:39:45;;;;;;;12.18;2.08;;;18.70;99.90;;;;;;5007513;28;20137;-42
2022/07/08 07:42:12;;;;;;;15.20;2.60;;;18.80;99.90;;;;;;5009754;28;20088;-42
2022/07/08 07:44:39;;;;;;;12.15;2.33;;;18.90;99.90;;;;;;5010496;28;20489;-42
2022/07/08 07:47:06;;;;;;;12.15;2.20;;;18.90;99.80;;;;;;5008806;28;20576;-42
2022/07/08 07:49:32;;;;;;;11.73;2.25;;;19.00;99.60;;;;;;5003656;28;21218;-43
2022/07/08 07:51:59;;;;;;;12.05;2.40;;;19.00;99.40;;;;;;5005512;28;20124;-42
2022/07/08 07:54:26;;;;;;;10.23;2.50;;;19.10;99.20;;;;;;5004922;28;20049;-43
2022/07/08 07:56:54;;;;;;;15.52;2.42;;;19.20;99.00;;;;;;5008125;28;20418;-43
2022/07/08 07:59:21;;;;;;;10.80;2.38;;;19.20;98.70;;;;;;5009369;28;20513;-43
2022/07/08 08:01:47;;;;;;;12.43;2.20;;;19.30;98.80;;;;;;5002773;28;20062;-42
2022/07/08 08:04:14;;;;;;;12.88;2.78;;;19.30;98.70;;;;;;5002518;28;20466;-42
2022/07/08 08:06:41;;;;;;;11.30;2.10;;;19.30;98.70;;;;;;5006708;28;20056;-42
2022/07/08 08:09:08;;;;;;;13.60;2.13;;;19.30;98.50;;;;;;5008333;28;20045;-43
2022/07/08 08:11:34;;;;;;;9.13;2.20;;;19.20;98.50;;;;;;5010177;28;20411;-43
2022/07/08 08:14:02;;;;;;;13.60;2.45;;;19.30;98.50;;;;;;5006660;28;20077;-41
2022/07/08 08:16:29;;;;;;;8.95;2.25;;;19.30;98.40;;;;;;5007362;28;20046;-43
2022/07/08 08:18:56;;;;;;;13.00;2.22;;;19.30;98.40;;;;;;5007306;28;20056;-43
2022/07/08 08:21:24;;;;;;;10.25;2.40;;;19.30;98.50;;;;;;5008937;28;20045;-42
2022/07/08 08:23:50;;;;;;;10.02;2.00;;;19.40;98.40;;;;;;5007212;28;20049;-43
2022/07/08 08:26:17;;;;;;;9.30;2.17;;;19.40;98.40;;;;;;5007777;28;20077;-44
2022/07/08 08:28:44;;;;;;;10.23;2.00;;;19.50;98.50;;;;;;5005569;28;20132;-42
2022/07/08 08:31:13;;;;;;;12.07;2.10;;;19.60;98.60;;;;;;5008991;28;20416;-42
2022/07/08 08:33:39;;;;;;;14.52;2.88;;;19.70;98.10;;;;;;5010481;28;20085;-42
2022/07/08 08:36:07;;;;;;;10.32;3.08;;;19.80;98.10;;;;;;5009772;28;20124;-43
2022/07/08 08:38:34;;;;;;;13.85;2.65;;;19.90;97.70;;;;;;5009870;28;20042;-42
2022/07/08 08:41:00;;;;;;;10.70;2.20;;;20.00;97.50;;;;;;5011697;28;20129;-42
2022/07/08 08:43:27;;;;;;;13.20;2.72;;;20.00;97.20;;;;;;5011479;28;20046;-43
2022/07/08 08:45:54;;;;;;;12.70;2.58;;;20.10;97.30;;;;;;5011909;28;20133;-43
2022/07/08 08:48:24;;;;;;;10.10;2.50;;;20.20;97.30;;;;;;5008893;28;20388;-42
2022/07/08 08:50:56;;;;;;;9.65;1.90;;;20.30;97.10;;;;;;5010727;28;20093;-42
2022/07/08 08:53:27;;;;;;;16.83;2.80;;;20.40;97.10;;;;;;5010526;28;20084;-42
2022/07/08 08:55:54;;;;;;;12.13;2.30;;;20.50;97.10;;;;;;5011680;28;20057;-42
2022/07/08 08:58:21;;;;;;;11.07;2.03;;;20.60;97.30;;;;;;5009934;28;20073;-43
2022/07/08 09:00:48;;;;;;;9.80;2.63;;;20.70;96.70;;;;;;5010029;28;20089;-42
2022/07/08 09:03:15;;;;;;;15.63;2.33;;;20.90;96.60;;;;;;5010409;28;20131;-43
2022/07/08 09:05:43;;;;;;;9.32;2.03;;;20.90;96.70;;;;;;4995801;28;20057;-42
2022/07/08 09:08:10;;;;;;;10.98;2.25;;;21.00;96.70;;;;;;5010577;28;20085;-43
2022/07/08 09:10:36;;;;;;;13.63;2.65;;;21.10;96.30;;;;;;5015207;28;20472;-42
2022/07/08 09:13:05;;;;;;;12.73;2.53;;;21.10;95.90;;;;;;5013713;28;20049;-42
2022/07/08 09:15:36;;;;;;;7.38;1.95;;;21.10;95.70;;;;;;4998725;28;20133;-43
2022/07/08 09:18:04;;;;;;;14.63;2.15;;;21.20;95.70;;;;;;5014352;28;20053;-42
2022/07/08 09:20:45;;;;;;;9.98;2.00;;;21.20;95.40;;;;;;5014772;28;20096;-42
2022/07/08 09:23:13;;;;;;;12.90;2.40;;;21.20;95.40;;;;;;5014062;28;20530;-41
2022/07/08 09:25:40;;;;;;;10.18;2.30;;;21.30;95.50;;;;;;5014448;28;20057;-41
2022/07/08 09:28:06;;;;;;;9.23;2.55;;;21.40;95.30;;;;;;5012586;28;20046;-43
2022/07/08 09:30:33;;;;;;;11.45;2.55;;;21.40;95.00;;;;;;5013914;28;20414;-42
2022/07/08 09:33:01;;;;;;;11.13;2.33;;;21.50;95.10;;;;;;5012798;28;20081;-43
2022/07/08 09:35:33;;;;;;;10.20;2.05;;;21.50;95.20;;;;;;5014583;28;20085;-43
2022/07/08 09:38:03;;;;;;;8.18;2.33;;;21.50;95.20;;;;;;5014650;28;20133;-43
2022/07/08 09:40:30;;;;;;;9.73;2.67;;;21.60;95.00;;;;;;5012535;28;20053;-43
2022/07/08 09:42:57;;;;;;;10.32;2.30;;;21.60;95.10;;;;;;4999121;28;20064;-42
2022/07/08 09:45:29;;;;;;;8.50;2.50;;;21.70;95.30;;;;;;5011086;28;20517;-43
2022/07/08 09:48:04;;;;;;;8.23;2.22;;;21.70;94.70;;;;;;5011959;28;20053;-43
2022/07/08 09:50:39;;;;;;;10.45;2.42;;;21.70;95.00;;;;;;5007873;28;20148;-43
2022/07/08 09:53:17;;;;;;;10.25;2.17;;;21.70;94.90;;;;;;5008461;28;20460;-42
2022/07/08 09:55:46;;;;;;;6.22;2.00;;;21.80;94.90;;;;;;5013537;28;20148;-42
2022/07/08 09:58:14;;;;;;;14.98;2.88;;;21.80;94.80;;;;;;5013439;28;20480;-42
2022/07/08 10:00:41;;;;;;;8.95;2.30;;;21.80;94.40;;;;;;5027328;28;20049;-42
2022/07/08 10:03:08;;;;;;;10.10;2.30;;;21.90;94.60;;;;;;5005294;28;20134;-43
2022/07/08 10:05:34;;;;;;;9.98;2.13;;;21.90;94.00;;;;;;5004280;28;20077;-43
2022/07/08 10:08:02;;;;;;;5.45;2.00;;;21.90;93.90;;;;;;5012737;28;20089;-43
2022/07/08 10:10:30;;;;;;;11.65;2.20;;;22.00;93.50;;;;;;5014198;28;20100;-42
2022/07/08 10:12:58;;;;;;;14.02;2.47;;;21.90;93.30;;;;;;5014914;28;20052;-42
2022/07/08 10:15:25;;;;;;;6.47;1.77;;;21.90;93.30;;;;;;5013878;28;20057;-42
2022/07/08 10:17:52;;;;;;;8.70;2.10;;;21.90;93.40;;;;;;5013979;28;20057;-43
2022/07/08 10:20:19;;;;;;;8.23;1.92;;;21.90;93.40;;;;;;5014606;28;20088;-43
2022/07/08 10:22:47;;;;;;;8.65;1.83;;;21.90;93.20;;;;;;5014577;28;20060;-42
2022/07/08 10:25:14;;;;;;;8.50;1.95;;;21.90;93.10;;;;;;5013708;28;20125;-43
2022/07/08 10:27:42;;;;;;;7.03;2.03;;;22.00;93.10;;;;;;5012649;28;20140;-43
2022/07/08 10:30:15;;;;;;;7.57;2.08;;;22.00;93.20;;;;;;5013544;28;20141;-42
2022/07/08 10:32:43;;;;;;;8.85;2.10;;;22.10;93.40;;;;;;5014491;28;20453;-42
2022/07/08 10:35:11;;;;;;;9.13;1.75;;;22.10;93.00;;;;;;5014488;28;20445;-42
2022/07/08 10:37:51;;;;;;;10.00;2.63;;;22.10;93.10;;;;;;5010808;28;20058;-43
2022/07/08 10:40:51;;;;;;;12.18;2.13;;;22.20;93.30;;;;;;5013216;28;20132;-43
2022/07/08 10:43:28;;;;;;;9.77;2.15;;;22.40;93.00;;;;;;4953813;28;20075;-42
2022/07/08 10:45:59;;;;;;;9.85;1.95;;;22.50;92.80;;;;;;5002110;28;20508;-42
2022/07/08 10:48:27;;;;;;;6.50;1.80;;;22.50;93.00;;;;;;5011818;28;20056;-42
2022/07/08 10:50:53;;;;;;;9.45;2.17;;;22.60;92.80;;;;;;5013242;28;20232;-43
2022/07/08 10:53:20;;;;;;;8.60;2.30;;;22.70;92.90;;;;;;5014162;28;20445;-43
2022/07/08 10:55:47;;;;;;;9.23;2.03;;;22.70;92.50;;;;;;5013285;28;20474;-42
2022/07/08 10:58:14;;;;;;;6.78;1.75;;;22.70;92.50;;;;;;5012600;28;20057;-43
2022/07/08 11:00:43;;;;;;;9.45;2.00;;;22.70;92.50;;;;;;5011994;28;20046;-43
2022/07/08 11:03:11;;;;;;;9.25;2.33;;;22.70;92.30;;;;;;5004711;28;20054;-43
2022/07/08 11:05:38;;;;;;;10.30;2.58;;;22.70;92.60;;;;;;5011582;28;20546;-43
2022/07/08 11:08:23;;;;;;;9.63;2.30;;;22.70;92.30;;;;;;5013328;28;20490;-43
2022/07/08 11:10:51;;;;;;;9.18;2.22;;;22.80;92.60;;;;;;5013788;28;20333;-42
2022/07/08 11:13:18;;;;;;;9.27;1.90;;;22.80;92.60;;;;;;5013627;28;20088;-43
2022/07/08 11:15:46;;;;;;;8.57;2.10;;;22.80;92.30;;;;;;5012174;28;20082;-43
2022/07/08 11:18:15;;;;;;;6.20;1.85;;;22.90;91.80;;;;;;4993144;28;20140;-42
2022/07/08 11:20:42;;;;;;;9.43;1.83;;;23.00;91.70;;;;;;4997126;28;20133;-43
2022/07/08 11:23:09;;;;;;;8.23;2.45;;;23.00;91.50;;;;;;5012338;28;20081;-43
2022/07/08 11:25:35;;;;;;;10.50;2.10;;;23.10;91.30;;;;;;5011179;28;20125;-44
2022/07/08 11:28:02;;;;;;;8.05;2.17;;;23.10;91.40;;;;;;5013729;28;20494;-43
2022/07/08 11:30:30;;;;;;;7.57;1.83;;;23.10;91.40;;;;;;5010456;28;20521;-43
2022/07/08 11:32:59;;;;;;;11.48;2.10;;;23.20;91.10;;;;;;5012369;28;20089;-42
2022/07/08 11:35:26;;;;;;;7.22;1.80;;;23.20;91.30;;;;;;5011780;28;20058;-43
2022/07/08 11:37:53;;;;;;;15.73;2.03;;;23.20;91.20;;;;;;5013587;28;20060;-43
2022/07/08 11:40:20;;;;;;;10.85;2.15;;;23.30;91.40;;;;;;5012038;28;20482;-43
2022/07/08 11:42:46;;;;;;;8.20;1.90;;;23.30;91.30;;;;;;5013609;28;20053;-42
2022/07/08 11:45:13;;;;;;;5.88;2.00;;;23.40;90.90;;;;;;5012638;28;20137;-43
2022/07/08 11:47:40;;;;;;;5.90;1.80;;;23.40;90.80;;;;;;5013290;28;20564;-43
2022/07/08 11:50:10;;;;;;;7.97;1.73;;;23.50;90.50;;;;;;5012400;28;20136;-44
2022/07/08 11:52:37;;;;;;;6.65;1.80;;;23.70;90.40;;;;;;5011541;28;20402;-43
2022/07/08 11:55:06;;;;;;;5.88;1.70;;;23.80;90.20;;;;;;5010281;28;20061;-43
2022/07/08 11:57:33;;;;;;;8.82;2.60;;;23.90;89.70;;;;;;5009799;28;20057;-43
2022/07/08 12:00:00;;;;;;;6.70;2.10;;;24.10;89.80;;;;;;5007702;28;20134;-44
2022/07/08 12:02:26;;;;;;;6.82;1.90;;;24.20;89.20;;;;;;4996666;28;20566;-43
2022/07/08 12:04:53;;;;;;;8.50;2.10;;;24.10;88.50;;;;;;5013074;28;20045;-43
2022/07/08 12:07:23;;;;;;;5.50;1.92;;;24.20;88.50;;;;;;5010378;28;20513;-43
2022/07/08 12:09:53;;;;;;;14.60;2.63;;;24.10;88.10;;;;;;5012015;28;20568;-43
2022/07/08 12:12:21;;;;;;;6.88;2.33;;;24.10;88.40;;;;;;5012365;28;20081;-42
2022/07/08 12:14:48;;;;;;;8.32;1.85;;;24.10;88.00;;;;;;5010749;28;20078;-43
2022/07/08 12:17:22;;;;;;;8.30;2.17;;;24.30;88.70;;;;;;5011638;28;20088;-43
2022/07/08 12:19:52;;;;;;;5.95;1.98;;;24.60;88.00;;;;;;5011855;28;20045;-43
2022/07/08 12:22:20;;;;;;;5.68;1.70;;;24.70;87.00;;;;;;5012292;28;20083;-43
2022/07/08 12:24:49;;;;;;;8.93;1.90;;;24.70;86.90;;;;;;4996654;28;20141;-42
2022/07/08 12:27:17;;;;;;;7.93;1.77;;;24.70;87.00;;;;;;5001387;28;20137;-43
2022/07/08 12:29:44;;;;;;;10.05;2.00;;;24.70;87.10;;;;;;4995945;28;20092;-43
2022/07/08 12:32:12;;;;;;;6.43;1.80;;;24.70;87.20;;;;;;5010924;28;20065;-43
2022/07/08 12:34:38;;;;;;;5.22;1.95;;;24.70;87.20;;;;;;5012144;28;20076;-43
2022/07/08 12:37:15;;;;;;;7.78;2.47;;;24.70;87.90;;;;;;5012621;28;20085;-43
2022/07/08 12:39:42;;;;;;;7.43;2.55;;;24.90;86.90;;;;;;5016401;28;20089;-43
2022/07/08 12:42:11;;;;;;;7.05;1.98;;;25.00;86.20;;;;;;5015885;28;20060;-43
2022/07/08 12:44:39;;;;;;;10.02;1.95;;;25.20;86.30;;;;;;5016582;28;20092;-43